Airfield :
LOGIN :

Register | Disclaimer

   EN    FR    IT 

 










Legend :    VFR   Marginal VFR   IFR   Intensive IFR   Very Intensive IFR
Visi :
Ceiling :
>= 8 km
>= 3000ft
5 to 8 km
1000 to 3000 ft
1500m to 5 km
500 to 1000 ft
800 to 1500m
200 to 500 ft
< 800m
< 200 ft
Symbols :   Thunderstorms  Fog  Heavy snow  Heavy precipitations  Wind > 20 kt
SIGMETs :     Misc.  Thunderstorms  Icing  Turbulence  Mountain Waves  Volcanic Ashes






- Airport Elevation : 154 ft
- IATA code : SZZ


EPSC - Szczecin Goleniow

CURRENT METAR :
  • 230300Z VRB01KT 9999 MIFG NSC 10/10 Q1017

EXPIRED METARs :
  • 230230Z VRB01KT 9999 MIFG NSC 12/11 Q1017
  • 230200Z VRB01KT 9999 MIFG NSC 11/10 Q1017
  • 230130Z 08001KT 9999 MIFG NSC 11/10 Q1017
  • 230100Z VRB01KT 9999 MIFG NSC 12/11 Q1017
  • 230030Z VRB01KT 9999 MIFG NSC 11/10 Q1017
  • 230000Z VRB01KT 9999 MIFG NSC 12/11 Q1017
  • 222330Z VRB02KT 9999 MIFG NSC 12/11 Q1017
  • 222300Z 00000KT CAVOK 13/13 Q1017
  • 222230Z VRB01KT CAVOK 13/13 Q1016

TAF TAF EPSC
Valid from the 23 at 00:00 until the 24 at 00:00 UTC


222330Z 2300/2324 VRB02KT CAVOK
PROB30
TEMPO 2300/2305 4000 BR
PROB40
TEMPO 2311/2318 SCT040TCU
TEMPO 2318/2324 10015G25KT 3000 TSRA BKN012 BKN025CB



MET'MAP, your aeronautical weather chart ! - Copyright ORBIFLY December 2007 - Disclaimer

ORBIFLY MET'MAP TEAM :

Programming & Development : Alexandra Zaïnal
Original concept : Baudouin d'Aumeries
Technical & hardware support : Manuel Goepfert
Assistance : Marc-Olivier Méhu




SOURCES & CREDITS :

   NOAA